sensor_id;sensor_type;location;lat;lon;timestamp;pressure;altitude;pressure_sealevel;temperature;humidity
60646;BME280;46462;32.608;-117.032;2023-05-20T00:01:03;99584.40;;;25.70;47.37
60646;BME280;46462;32.608;-117.032;2023-05-20T00:03:33;99582.58;;;25.69;47.30
60646;BME280;46462;32.608;-117.032;2023-05-20T00:06:04;99579.87;;;25.69;47.37
60646;BME280;46462;32.608;-117.032;2023-05-20T00:08:35;99582.56;;;25.65;47.42
60646;BME280;46462;32.608;-117.032;2023-05-20T00:11:05;99586.48;;;25.65;47.44
60646;BME280;46462;32.608;-117.032;2023-05-20T00:13:37;99585.29;;;25.65;47.41
60646;BME280;46462;32.608;-117.032;2023-05-20T00:16:07;99581.38;;;25.66;47.37
60646;BME280;46462;32.608;-117.032;2023-05-20T00:18:37;99580.51;;;25.65;47.38
60646;BME280;46462;32.608;-117.032;2023-05-20T00:21:08;99576.15;;;25.66;47.34
60646;BME280;46462;32.608;-117.032;2023-05-20T00:23:38;99575.47;;;25.67;47.24
60646;BME280;46462;32.608;-117.032;2023-05-20T00:26:09;99571.21;;;25.70;47.19
60646;BME280;46462;32.608;-117.032;2023-05-20T00:28:40;99571.45;;;25.69;47.22
60646;BME280;46462;32.608;-117.032;2023-05-20T00:31:11;99572.97;;;25.68;47.19
60646;BME280;46462;32.608;-117.032;2023-05-20T00:33:41;99573.44;;;25.66;47.25
60646;BME280;46462;32.608;-117.032;2023-05-20T00:36:12;99572.67;;;25.68;47.17
60646;BME280;46462;32.608;-117.032;2023-05-20T00:38:42;99574.80;;;25.66;47.19
60646;BME280;46462;32.608;-117.032;2023-05-20T00:41:13;99574.93;;;25.64;47.16
60646;BME280;46462;32.608;-117.032;2023-05-20T00:43:44;99571.84;;;25.61;47.29
60646;BME280;46462;32.608;-117.032;2023-05-20T00:46:15;99566.47;;;25.59;47.33
60646;BME280;46462;32.608;-117.032;2023-05-20T00:48:45;99567.12;;;25.62;47.28
60646;BME280;46462;32.608;-117.032;2023-05-20T00:51:16;99565.52;;;25.56;47.36
60646;BME280;46462;32.608;-117.032;2023-05-20T00:53:47;99564.59;;;25.58;47.30
60646;BME280;46462;32.608;-117.032;2023-05-20T00:56:18;99568.57;;;25.61;47.23
60646;BME280;46462;32.608;-117.032;2023-05-20T00:58:49;99569.48;;;25.59;47.26
60646;BME280;46462;32.608;-117.032;2023-05-20T01:01:19;99568.99;;;25.61;47.20
60646;BME280;46462;32.608;-117.032;2023-05-20T01:03:49;99569.28;;;25.61;47.24
60646;BME280;46462;32.608;-117.032;2023-05-20T01:06:20;99568.19;;;25.56;47.33
60646;BME280;46462;32.608;-117.032;2023-05-20T01:08:50;99570.35;;;25.58;47.22
60646;BME280;46462;32.608;-117.032;2023-05-20T01:11:27;99565.78;;;25.56;47.25
60646;BME280;46462;32.608;-117.032;2023-05-20T01:13:56;99563.82;;;25.59;47.18
60646;BME280;46462;32.608;-117.032;2023-05-20T01:16:24;99566.14;;;25.63;47.09
60646;BME280;46462;32.608;-117.032;2023-05-20T01:18:55;99567.74;;;25.63;47.06
60646;BME280;46462;32.608;-117.032;2023-05-20T01:21:24;99567.96;;;25.61;47.07
60646;BME280;46462;32.608;-117.032;2023-05-20T01:23:54;99570.10;;;25.61;47.11
60646;BME280;46462;32.608;-117.032;2023-05-20T01:26:25;99568.80;;;25.64;47.03
60646;BME280;46462;32.608;-117.032;2023-05-20T01:28:56;99570.46;;;25.60;47.10
60646;BME280;46462;32.608;-117.032;2023-05-20T01:31:30;99574.45;;;25.58;47.19
60646;BME280;46462;32.608;-117.032;2023-05-20T01:33:57;99565.17;;;25.61;47.10
60646;BME280;46462;32.608;-117.032;2023-05-20T01:36:28;99558.87;;;25.56;47.21
60646;BME280;46462;32.608;-117.032;2023-05-20T01:38:58;99558.08;;;25.55;47.24
60646;BME280;46462;32.608;-117.032;2023-05-20T01:41:29;99553.64;;;25.53;47.23
60646;BME280;46462;32.608;-117.032;2023-05-20T01:43:59;99555.05;;;25.51;47.32
60646;BME280;46462;32.608;-117.032;2023-05-20T01:46:32;99554.18;;;25.52;47.23
60646;BME280;46462;32.608;-117.032;2023-05-20T01:49:01;99554.46;;;25.52;47.28
60646;BME280;46462;32.608;-117.032;2023-05-20T01:51:31;99560.29;;;25.53;47.21
60646;BME280;46462;32.608;-117.032;2023-05-20T01:54:02;99555.47;;;25.52;47.28
60646;BME280;46462;32.608;-117.032;2023-05-20T01:56:34;99551.42;;;25.52;47.20
60646;BME280;46462;32.608;-117.032;2023-05-20T01:59:03;99552.04;;;25.52;47.22
60646;BME280;46462;32.608;-117.032;2023-05-20T02:01:34;99557.09;;;25.53;47.20
60646;BME280;46462;32.608;-117.032;2023-05-20T02:04:05;99560.31;;;25.54;47.16
60646;BME280;46462;32.608;-117.032;2023-05-20T02:06:35;99560.69;;;25.47;47.36
60646;BME280;46462;32.608;-117.032;2023-05-20T02:09:05;99559.29;;;25.44;47.42
60646;BME280;46462;32.608;-117.032;2023-05-20T02:11:36;99564.93;;;25.50;47.24
60646;BME280;46462;32.608;-117.032;2023-05-20T02:14:06;99567.89;;;25.44;47.33
60646;BME280;46462;32.608;-117.032;2023-05-20T02:16:37;99566.04;;;25.45;47.29
60646;BME280;46462;32.608;-117.032;2023-05-20T02:19:08;99562.24;;;25.41;47.41
60646;BME280;46462;32.608;-117.032;2023-05-20T02:21:40;99563.29;;;25.46;47.30
60646;BME280;46462;32.608;-117.032;2023-05-20T02:24:09;99566.92;;;25.42;47.43
60646;BME280;46462;32.608;-117.032;2023-05-20T02:26:40;99569.25;;;25.47;47.31
60646;BME280;46462;32.608;-117.032;2023-05-20T02:29:11;99569.68;;;25.44;47.36
60646;BME280;46462;32.608;-117.032;2023-05-20T02:31:41;99570.07;;;25.45;47.35
60646;BME280;46462;32.608;-117.032;2023-05-20T02:34:12;99566.90;;;25.38;47.48
60646;BME280;46462;32.608;-117.032;2023-05-20T02:36:42;99563.98;;;25.39;47.48
60646;BME280;46462;32.608;-117.032;2023-05-20T02:39:13;99563.47;;;25.40;47.47
60646;BME280;46462;32.608;-117.032;2023-05-20T02:41:44;99564.52;;;25.40;47.36
60646;BME280;46462;32.608;-117.032;2023-05-20T02:44:15;99570.87;;;25.36;47.55
60646;BME280;46462;32.608;-117.032;2023-05-20T02:46:46;99581.05;;;25.42;47.37
60646;BME280;46462;32.608;-117.032;2023-05-20T02:49:16;99583.24;;;25.43;47.31
60646;BME280;46462;32.608;-117.032;2023-05-20T02:51:47;99581.93;;;25.41;47.36
60646;BME280;46462;32.608;-117.032;2023-05-20T02:54:17;99582.72;;;25.44;47.26
60646;BME280;46462;32.608;-117.032;2023-05-20T02:56:48;99585.75;;;25.41;47.34
60646;BME280;46462;32.608;-117.032;2023-05-20T02:59:19;99590.35;;;25.40;47.32
60646;BME280;46462;32.608;-117.032;2023-05-20T03:01:49;99592.31;;;25.37;47.41
60646;BME280;46462;32.608;-117.032;2023-05-20T03:04:20;99594.91;;;25.36;47.47
60646;BME280;46462;32.608;-117.032;2023-05-20T03:06:51;99594.80;;;25.40;47.33
60646;BME280;46462;32.608;-117.032;2023-05-20T03:09:21;99594.70;;;25.37;47.37
60646;BME280;46462;32.608;-117.032;2023-05-20T03:11:52;99597.65;;;25.39;47.29
60646;BME280;46462;32.608;-117.032;2023-05-20T03:14:22;99604.48;;;25.40;47.29
60646;BME280;46462;32.608;-117.032;2023-05-20T03:16:53;99607.41;;;25.42;47.23
60646;BME280;46462;32.608;-117.032;2023-05-20T03:19:24;99612.86;;;25.41;47.24
60646;BME280;46462;32.608;-117.032;2023-05-20T03:21:54;99615.03;;;25.40;47.25
60646;BME280;46462;32.608;-117.032;2023-05-20T03:24:25;99612.89;;;25.39;47.26
60646;BME280;46462;32.608;-117.032;2023-05-20T03:26:56;99612.77;;;25.39;47.26
60646;BME280;46462;32.608;-117.032;2023-05-20T03:29:26;99613.99;;;25.36;47.29
60646;BME280;46462;32.608;-117.032;2023-05-20T03:31:57;99619.89;;;25.34;47.38
60646;BME280;46462;32.608;-117.032;2023-05-20T03:34:27;99624.77;;;25.31;47.41
60646;BME280;46462;32.608;-117.032;2023-05-20T03:36:58;99625.25;;;25.29;47.48
60646;BME280;46462;32.608;-117.032;2023-05-20T03:39:29;99621.15;;;25.29;47.44
60646;BME280;46462;32.608;-117.032;2023-05-20T03:42:00;99619.53;;;25.27;47.54
60646;BME280;46462;32.608;-117.032;2023-05-20T03:44:30;99622.09;;;25.27;47.51
60646;BME280;46462;32.608;-117.032;2023-05-20T03:47:01;99627.18;;;25.30;47.46
60646;BME280;46462;32.608;-117.032;2023-05-20T03:49:31;99627.93;;;25.29;47.44
60646;BME280;46462;32.608;-117.032;2023-05-20T03:52:02;99628.55;;;25.31;47.37
60646;BME280;46462;32.608;-117.032;2023-05-20T03:54:33;99628.37;;;25.24;47.58
60646;BME280;46462;32.608;-117.032;2023-05-20T03:57:04;99629.72;;;25.27;47.49
60646;BME280;46462;32.608;-117.032;2023-05-20T03:59:34;99635.50;;;25.22;47.58
60646;BME280;46462;32.608;-117.032;2023-05-20T04:02:05;99635.87;;;25.25;47.47
60646;BME280;46462;32.608;-117.032;2023-05-20T04:04:36;99635.06;;;25.25;47.50
60646;BME280;46462;32.608;-117.032;2023-05-20T04:07:06;99638.81;;;25.24;47.51
60646;BME280;46462;32.608;-117.032;2023-05-20T04:09:38;99637.21;;;25.21;47.56
60646;BME280;46462;32.608;-117.032;2023-05-20T04:12:08;99638.31;;;25.24;47.51
60646;BME280;46462;32.608;-117.032;2023-05-20T04:14:38;99645.39;;;25.21;47.55
60646;BME280;46462;32.608;-117.032;2023-05-20T04:17:09;99646.54;;;25.22;47.54
60646;BME280;46462;32.608;-117.032;2023-05-20T04:19:40;99649.62;;;25.22;47.55
60646;BME280;46462;32.608;-117.032;2023-05-20T04:22:10;99652.13;;;25.23;47.50
60646;BME280;46462;32.608;-117.032;2023-05-20T04:24:41;99652.02;;;25.21;47.55
60646;BME280;46462;32.608;-117.032;2023-05-20T04:27:12;99651.13;;;25.24;47.42
60646;BME280;46462;32.608;-117.032;2023-05-20T04:29:43;99651.33;;;25.21;47.51
60646;BME280;46462;32.608;-117.032;2023-05-20T04:32:16;99649.15;;;25.27;47.33
60646;BME280;46462;32.608;-117.032;2023-05-20T04:34:44;99651.51;;;25.23;47.46
60646;BME280;46462;32.608;-117.032;2023-05-20T04:37:14;99652.88;;;25.27;47.33
60646;BME280;46462;32.608;-117.032;2023-05-20T04:39:44;99656.91;;;25.21;47.45
60646;BME280;46462;32.608;-117.032;2023-05-20T04:42:16;99658.24;;;25.19;47.47
60646;BME280;46462;32.608;-117.032;2023-05-20T04:44:46;99663.25;;;25.16;47.54
60646;BME280;46462;32.608;-117.032;2023-05-20T04:47:16;99671.39;;;25.16;47.51
60646;BME280;46462;32.608;-117.032;2023-05-20T04:49:47;99677.06;;;25.17;47.49
60646;BME280;46462;32.608;-117.032;2023-05-20T04:52:18;99682.84;;;25.19;47.47
60646;BME280;46462;32.608;-117.032;2023-05-20T04:54:49;99687.46;;;25.16;47.55
60646;BME280;46462;32.608;-117.032;2023-05-20T04:57:19;99691.36;;;25.10;47.67
60646;BME280;46462;32.608;-117.032;2023-05-20T04:59:50;99692.66;;;25.06;47.74
60646;BME280;46462;32.608;-117.032;2023-05-20T05:02:20;99694.11;;;25.09;47.65
60646;BME280;46462;32.608;-117.032;2023-05-20T05:04:51;99691.52;;;25.10;47.61
60646;BME280;46462;32.608;-117.032;2023-05-20T05:07:22;99691.70;;;25.12;47.58
60646;BME280;46462;32.608;-117.032;2023-05-20T05:09:53;99693.13;;;25.14;47.55
60646;BME280;46462;32.608;-117.032;2023-05-20T05:12:23;99697.44;;;25.15;47.50
60646;BME280;46462;32.608;-117.032;2023-05-20T05:14:54;99702.45;;;25.15;47.49
60646;BME280;46462;32.608;-117.032;2023-05-20T05:17:24;99707.22;;;25.19;47.36
60646;BME280;46462;32.608;-117.032;2023-05-20T05:19:55;99711.53;;;25.13;47.51
60646;BME280;46462;32.608;-117.032;2023-05-20T05:22:26;99716.04;;;25.25;47.22
60646;BME280;46462;32.608;-117.032;2023-05-20T05:24:56;99717.27;;;25.23;47.21
60646;BME280;46462;32.608;-117.032;2023-05-20T05:27:27;99721.91;;;25.24;47.21
60646;BME280;46462;32.608;-117.032;2023-05-20T05:29:58;99728.63;;;25.21;47.21
60646;BME280;46462;32.608;-117.032;2023-05-20T05:32:28;99730.40;;;25.18;47.28
60646;BME280;46462;32.608;-117.032;2023-05-20T05:34:59;99727.64;;;25.12;47.45
60646;BME280;46462;32.608;-117.032;2023-05-20T05:37:30;99725.27;;;25.12;47.46
60646;BME280;46462;32.608;-117.032;2023-05-20T05:40:00;99730.12;;;25.04;47.63
60646;BME280;46462;32.608;-117.032;2023-05-20T05:42:31;99727.22;;;25.01;47.72
60646;BME280;46462;32.608;-117.032;2023-05-20T05:45:02;99721.90;;;25.02;47.67
60646;BME280;46462;32.608;-117.032;2023-05-20T05:47:32;99727.62;;;25.01;47.72
60646;BME280;46462;32.608;-117.032;2023-05-20T05:50:02;99728.71;;;25.00;47.74
60646;BME280;46462;32.608;-117.032;2023-05-20T05:52:33;99726.32;;;25.01;47.68
60646;BME280;46462;32.608;-117.032;2023-05-20T05:55:08;99726.13;;;25.03;47.61
60646;BME280;46462;32.608;-117.032;2023-05-20T05:57:37;99731.51;;;25.03;47.62
60646;BME280;46462;32.608;-117.032;2023-05-20T06:00:08;99734.72;;;25.03;47.62
60646;BME280;46462;32.608;-117.032;2023-05-20T06:02:38;99731.07;;;25.02;47.63
60646;BME280;46462;32.608;-117.032;2023-05-20T06:05:09;99726.98;;;25.00;47.63
60646;BME280;46462;32.608;-117.032;2023-05-20T06:07:39;99726.99;;;24.99;47.65
60646;BME280;46462;32.608;-117.032;2023-05-20T06:10:10;99729.28;;;24.96;47.72
60646;BME280;46462;32.608;-117.032;2023-05-20T06:12:41;99730.93;;;24.97;47.69
60646;BME280;46462;32.608;-117.032;2023-05-20T06:15:12;99727.54;;;24.98;47.70
60646;BME280;46462;32.608;-117.032;2023-05-20T06:17:42;99720.60;;;24.98;47.64
60646;BME280;46462;32.608;-117.032;2023-05-20T06:20:13;99723.80;;;25.00;47.58
60646;BME280;46462;32.608;-117.032;2023-05-20T06:22:44;99721.74;;;25.00;47.53
60646;BME280;46462;32.608;-117.032;2023-05-20T06:25:14;99718.77;;;24.94;47.68
60646;BME280;46462;32.608;-117.032;2023-05-20T06:27:45;99717.86;;;24.97;47.64
60646;BME280;46462;32.608;-117.032;2023-05-20T06:30:16;99711.62;;;24.90;47.80
60646;BME280;46462;32.608;-117.032;2023-05-20T06:32:46;99705.75;;;24.97;47.59
60646;BME280;46462;32.608;-117.032;2023-05-20T06:35:17;99708.49;;;24.94;47.64
60646;BME280;46462;32.608;-117.032;2023-05-20T06:37:48;99714.92;;;24.96;47.59
60646;BME280;46462;32.608;-117.032;2023-05-20T06:40:18;99716.08;;;24.93;47.63
60646;BME280;46462;32.608;-117.032;2023-05-20T06:42:49;99715.71;;;24.95;47.58
60646;BME280;46462;32.608;-117.032;2023-05-20T06:45:20;99712.86;;;24.91;47.67
60646;BME280;46462;32.608;-117.032;2023-05-20T06:47:50;99711.61;;;24.91;47.60
60646;BME280;46462;32.608;-117.032;2023-05-20T06:50:21;99713.32;;;24.93;47.60
60646;BME280;46462;32.608;-117.032;2023-05-20T06:52:52;99722.26;;;24.93;47.58
60646;BME280;46462;32.608;-117.032;2023-05-20T06:55:22;99727.27;;;24.96;47.50
60646;BME280;46462;32.608;-117.032;2023-05-20T06:57:53;99731.23;;;24.97;47.43
60646;BME280;46462;32.608;-117.032;2023-05-20T07:00:24;99727.77;;;24.94;47.54
60646;BME280;46462;32.608;-117.032;2023-05-20T07:02:54;99722.77;;;24.98;47.40
60646;BME280;46462;32.608;-117.032;2023-05-20T07:05:25;99718.82;;;25.00;47.35
60646;BME280;46462;32.608;-117.032;2023-05-20T07:07:56;99715.67;;;24.97;47.38
60646;BME280;46462;32.608;-117.032;2023-05-20T07:10:26;99705.24;;;24.96;47.38
60646;BME280;46462;32.608;-117.032;2023-05-20T07:12:57;99691.83;;;25.00;47.23
60646;BME280;46462;32.608;-117.032;2023-05-20T07:15:28;99681.94;;;24.96;47.35
60646;BME280;46462;32.608;-117.032;2023-05-20T07:17:59;99683.74;;;24.97;47.29
60646;BME280;46462;32.608;-117.032;2023-05-20T07:20:29;99682.97;;;25.01;47.20
60646;BME280;46462;32.608;-117.032;2023-05-20T07:23:00;99678.47;;;24.99;47.20
60646;BME280;46462;32.608;-117.032;2023-05-20T07:25:30;99673.76;;;25.00;47.19
60646;BME280;46462;32.608;-117.032;2023-05-20T07:28:01;99673.23;;;24.99;47.17
60646;BME280;46462;32.608;-117.032;2023-05-20T07:30:32;99674.73;;;24.96;47.21
60646;BME280;46462;32.608;-117.032;2023-05-20T07:33:02;99665.46;;;24.92;47.31
60646;BME280;46462;32.608;-117.032;2023-05-20T07:35:33;99656.29;;;24.92;47.32
60646;BME280;46462;32.608;-117.032;2023-05-20T07:38:04;99656.18;;;24.87;47.42
60646;BME280;46462;32.608;-117.032;2023-05-20T07:40:34;99658.74;;;24.86;47.42
60646;BME280;46462;32.608;-117.032;2023-05-20T07:43:05;99656.36;;;24.90;47.30
60646;BME280;46462;32.608;-117.032;2023-05-20T07:45:36;99650.79;;;24.83;47.45
60646;BME280;46462;32.608;-117.032;2023-05-20T07:48:06;99647.03;;;24.85;47.40
60646;BME280;46462;32.608;-117.032;2023-05-20T07:50:37;99636.96;;;24.80;47.49
60646;BME280;46462;32.608;-117.032;2023-05-20T07:53:08;99637.14;;;24.85;47.30
60646;BME280;46462;32.608;-117.032;2023-05-20T07:55:39;99643.34;;;24.82;47.39
60646;BME280;46462;32.608;-117.032;2023-05-20T07:58:09;99647.33;;;24.87;47.29
60646;BME280;46462;32.608;-117.032;2023-05-20T08:00:40;99637.99;;;24.90;47.15
60646;BME280;46462;32.608;-117.032;2023-05-20T08:03:11;99633.13;;;24.94;47.01
60646;BME280;46462;32.608;-117.032;2023-05-20T08:05:41;99630.24;;;24.87;47.17
60646;BME280;46462;32.608;-117.032;2023-05-20T08:08:12;99626.51;;;24.86;47.16
60646;BME280;46462;32.608;-117.032;2023-05-20T08:10:43;99621.21;;;24.81;47.35
60646;BME280;46462;32.608;-117.032;2023-05-20T08:13:13;99620.61;;;24.79;47.35
60646;BME280;46462;32.608;-117.032;2023-05-20T08:15:44;99625.20;;;24.80;47.31
60646;BME280;46462;32.608;-117.032;2023-05-20T08:18:15;99632.16;;;24.80;47.32
60646;BME280;46462;32.608;-117.032;2023-05-20T08:20:46;99633.55;;;24.77;47.36
60646;BME280;46462;32.608;-117.032;2023-05-20T08:23:16;99631.61;;;24.79;47.30
60646;BME280;46462;32.608;-117.032;2023-05-20T08:25:47;99630.60;;;24.75;47.39
60646;BME280;46462;32.608;-117.032;2023-05-20T08:28:17;99634.00;;;24.76;47.35
60646;BME280;46462;32.608;-117.032;2023-05-20T08:30:48;99629.89;;;24.77;47.34
60646;BME280;46462;32.608;-117.032;2023-05-20T08:33:19;99632.81;;;24.74;47.35
60646;BME280;46462;32.608;-117.032;2023-05-20T08:35:49;99638.63;;;24.69;47.52
60646;BME280;46462;32.608;-117.032;2023-05-20T08:38:20;99655.68;;;24.60;47.75
60646;BME280;46462;32.608;-117.032;2023-05-20T08:40:53;99673.46;;;24.69;47.55
60646;BME280;46462;32.608;-117.032;2023-05-20T08:43:22;99676.64;;;24.74;47.37
60646;BME280;46462;32.608;-117.032;2023-05-20T08:45:52;99661.81;;;24.76;47.26
60646;BME280;46462;32.608;-117.032;2023-05-20T08:48:25;99654.00;;;24.75;47.25
60646;BME280;46462;32.608;-117.032;2023-05-20T08:50:57;99645.63;;;24.78;47.09
60646;BME280;46462;32.608;-117.032;2023-05-20T08:53:24;99637.53;;;24.76;47.20
60646;BME280;46462;32.608;-117.032;2023-05-20T08:55:56;99634.01;;;24.73;47.24
60646;BME280;46462;32.608;-117.032;2023-05-20T08:58:26;99637.49;;;24.73;47.28
60646;BME280;46462;32.608;-117.032;2023-05-20T09:00:56;99639.03;;;24.75;47.23
60646;BME280;46462;32.608;-117.032;2023-05-20T09:03:27;99646.08;;;24.72;47.31
60646;BME280;46462;32.608;-117.032;2023-05-20T09:06:03;99649.54;;;24.75;47.19
60646;BME280;46462;32.608;-117.032;2023-05-20T09:08:30;99649.43;;;24.77;47.10
60646;BME280;46462;32.608;-117.032;2023-05-20T09:10:59;99647.60;;;24.78;47.05
60646;BME280;46462;32.608;-117.032;2023-05-20T09:13:30;99640.96;;;24.78;47.00
60646;BME280;46462;32.608;-117.032;2023-05-20T09:16:01;99641.34;;;24.78;47.00
60646;BME280;46462;32.608;-117.032;2023-05-20T09:18:31;99645.73;;;24.76;47.02
60646;BME280;46462;32.608;-117.032;2023-05-20T09:21:05;99652.15;;;24.81;46.89
60646;BME280;46462;32.608;-117.032;2023-05-20T09:23:35;99647.94;;;24.78;46.94
60646;BME280;46462;32.608;-117.032;2023-05-20T09:26:03;99638.51;;;24.81;46.85
60646;BME280;46462;32.608;-117.032;2023-05-20T09:28:34;99639.68;;;24.89;46.61
60646;BME280;46462;32.608;-117.032;2023-05-20T09:31:05;99642.20;;;24.95;46.43
60646;BME280;46462;32.608;-117.032;2023-05-20T09:33:36;99641.79;;;24.82;46.74
60646;BME280;46462;32.608;-117.032;2023-05-20T09:36:08;99645.37;;;24.75;46.92
60646;BME280;46462;32.608;-117.032;2023-05-20T09:38:37;99653.62;;;24.73;46.99
60646;BME280;46462;32.608;-117.032;2023-05-20T09:41:09;99651.86;;;24.68;47.07
60646;BME280;46462;32.608;-117.032;2023-05-20T09:43:39;99649.21;;;24.63;47.14
60646;BME280;46462;32.608;-117.032;2023-05-20T09:46:09;99655.95;;;24.67;47.07
60646;BME280;46462;32.608;-117.032;2023-05-20T09:48:39;99667.40;;;24.65;47.11
60646;BME280;46462;32.608;-117.032;2023-05-20T09:51:11;99676.26;;;24.62;47.23
60646;BME280;46462;32.608;-117.032;2023-05-20T09:53:41;99682.63;;;24.62;47.22
60646;BME280;46462;32.608;-117.032;2023-05-20T09:56:12;99681.98;;;24.64;47.16
60646;BME280;46462;32.608;-117.032;2023-05-20T09:58:44;99684.40;;;24.64;47.11
60646;BME280;46462;32.608;-117.032;2023-05-20T10:01:13;99686.68;;;24.70;46.95
60646;BME280;46462;32.608;-117.032;2023-05-20T10:03:44;99680.18;;;24.61;47.16
60646;BME280;46462;32.608;-117.032;2023-05-20T10:06:27;99678.00;;;24.65;47.00
60646;BME280;46462;32.608;-117.032;2023-05-20T10:08:57;99678.02;;;24.73;46.73
60646;BME280;46462;32.608;-117.032;2023-05-20T10:11:21;99671.67;;;24.75;46.72
60646;BME280;46462;32.608;-117.032;2023-05-20T10:13:59;99670.19;;;24.72;46.82
60646;BME280;46462;32.608;-117.032;2023-05-20T10:16:24;99667.22;;;24.76;46.71
60646;BME280;46462;32.608;-117.032;2023-05-20T10:18:54;99671.39;;;24.70;46.79
60646;BME280;46462;32.608;-117.032;2023-05-20T10:21:22;99671.96;;;24.81;46.51
60646;BME280;46462;32.608;-117.032;2023-05-20T10:23:49;99672.06;;;24.73;46.74
60646;BME280;46462;32.608;-117.032;2023-05-20T10:26:19;99667.88;;;24.71;46.80
60646;BME280;46462;32.608;-117.032;2023-05-20T10:28:50;99665.71;;;24.67;46.80
60646;BME280;46462;32.608;-117.032;2023-05-20T10:31:22;99659.69;;;24.63;46.91
60646;BME280;46462;32.608;-117.032;2023-05-20T10:33:53;99655.52;;;24.59;46.98
60646;BME280;46462;32.608;-117.032;2023-05-20T10:36:24;99659.89;;;24.63;46.87
60646;BME280;46462;32.608;-117.032;2023-05-20T10:38:54;99658.68;;;24.55;47.03
60646;BME280;46462;32.608;-117.032;2023-05-20T10:41:25;99660.26;;;24.62;46.85
60646;BME280;46462;32.608;-117.032;2023-05-20T10:43:59;99665.04;;;24.72;46.59
60646;BME280;46462;32.608;-117.032;2023-05-20T10:46:25;99664.73;;;24.64;46.77
60646;BME280;46462;32.608;-117.032;2023-05-20T10:48:56;99660.44;;;24.64;46.68
60646;BME280;46462;32.608;-117.032;2023-05-20T10:51:28;99659.26;;;24.56;46.94
60646;BME280;46462;32.608;-117.032;2023-05-20T10:53:57;99654.70;;;24.53;46.99
60646;BME280;46462;32.608;-117.032;2023-05-20T10:56:27;99651.88;;;24.61;46.75
60646;BME280;46462;32.608;-117.032;2023-05-20T10:59:01;99652.47;;;24.68;46.51
60646;BME280;46462;32.608;-117.032;2023-05-20T11:01:28;99661.17;;;24.62;46.67
60646;BME280;46462;32.608;-117.032;2023-05-20T11:04:00;99662.87;;;24.62;46.66
60646;BME280;46462;32.608;-117.032;2023-05-20T11:06:30;99662.39;;;24.67;46.52
60646;BME280;46462;32.608;-117.032;2023-05-20T11:09:04;99662.50;;;24.63;46.59
60646;BME280;46462;32.608;-117.032;2023-05-20T11:11:31;99660.56;;;24.62;46.63
60646;BME280;46462;32.608;-117.032;2023-05-20T11:14:02;99649.78;;;24.54;46.73
60646;BME280;46462;32.608;-117.032;2023-05-20T11:16:33;99644.00;;;24.56;46.72
60646;BME280;46462;32.608;-117.032;2023-05-20T11:19:03;99648.56;;;24.65;46.39
60646;BME280;46462;32.608;-117.032;2023-05-20T11:21:34;99647.55;;;24.69;46.28
60646;BME280;46462;32.608;-117.032;2023-05-20T11:24:05;99650.02;;;24.61;46.47
60646;BME280;46462;32.608;-117.032;2023-05-20T11:26:36;99648.22;;;24.56;46.58
60646;BME280;46462;32.608;-117.032;2023-05-20T11:29:06;99652.80;;;24.52;46.63
60646;BME280;46462;32.608;-117.032;2023-05-20T11:31:37;99647.68;;;24.58;46.44
60646;BME280;46462;32.608;-117.032;2023-05-20T11:34:07;99644.02;;;24.58;46.43
60646;BME280;46462;32.608;-117.032;2023-05-20T11:36:40;99643.59;;;24.52;46.59
60646;BME280;46462;32.608;-117.032;2023-05-20T11:39:10;99643.13;;;24.47;46.67
60646;BME280;46462;32.608;-117.032;2023-05-20T11:41:41;99649.16;;;24.44;46.68
60646;BME280;46462;32.608;-117.032;2023-05-20T11:44:11;99648.24;;;24.45;46.66
60646;BME280;46462;32.608;-117.032;2023-05-20T11:46:42;99640.72;;;24.48;46.54
60646;BME280;46462;32.608;-117.032;2023-05-20T11:49:13;99637.45;;;24.43;46.61
60646;BME280;46462;32.608;-117.032;2023-05-20T11:51:43;99635.68;;;24.44;46.60
60646;BME280;46462;32.608;-117.032;2023-05-20T11:54:13;99637.06;;;24.50;46.42
60646;BME280;46462;32.608;-117.032;2023-05-20T11:56:43;99639.39;;;24.53;46.27
60646;BME280;46462;32.608;-117.032;2023-05-20T11:59:14;99644.66;;;24.51;46.30
60646;BME280;46462;32.608;-117.032;2023-05-20T12:01:45;99648.39;;;24.52;46.30
60646;BME280;46462;32.608;-117.032;2023-05-20T12:04:16;99637.94;;;24.52;46.25
60646;BME280;46462;32.608;-117.032;2023-05-20T12:06:46;99622.48;;;24.56;46.19
60646;BME280;46462;32.608;-117.032;2023-05-20T12:09:17;99622.89;;;24.64;45.87
60646;BME280;46462;32.608;-117.032;2023-05-20T12:11:47;99625.43;;;24.58;46.01
60646;BME280;46462;32.608;-117.032;2023-05-20T12:14:18;99622.69;;;24.47;46.21
60646;BME280;46462;32.608;-117.032;2023-05-20T12:16:48;99617.46;;;24.52;46.18
60646;BME280;46462;32.608;-117.032;2023-05-20T12:19:19;99613.34;;;24.51;46.19
60646;BME280;46462;32.608;-117.032;2023-05-20T12:21:50;99612.00;;;24.54;46.00
60646;BME280;46462;32.608;-117.032;2023-05-20T12:24:21;99616.95;;;24.46;46.22
60646;BME280;46462;32.608;-117.032;2023-05-20T12:26:51;99625.95;;;24.43;46.31
60646;BME280;46462;32.608;-117.032;2023-05-20T12:29:22;99627.42;;;24.44;46.25
60646;BME280;46462;32.608;-117.032;2023-05-20T12:31:53;99626.15;;;24.40;46.36
60646;BME280;46462;32.608;-117.032;2023-05-20T12:34:23;99625.10;;;24.40;46.29
60646;BME280;46462;32.608;-117.032;2023-05-20T12:36:54;99630.65;;;24.43;46.19
60646;BME280;46462;32.608;-117.032;2023-05-20T12:39:25;99631.21;;;24.44;46.12
60646;BME280;46462;32.608;-117.032;2023-05-20T12:41:55;99622.05;;;24.38;46.24
60646;BME280;46462;32.608;-117.032;2023-05-20T12:44:26;99598.20;;;24.37;46.19
60646;BME280;46462;32.608;-117.032;2023-05-20T12:46:57;99586.56;;;24.36;46.14